Buoy 46533

sailwx.info

Track history (hours):
 
Tides and Currents Weather Stations Pressure Air Temp Water Temp Dewpoint Dewpoint Depression Visibility Wind Speed Wind Dir Waves Ship Positions

Drifting buoy 46533

Last reported at 2014-Sep-19 01:20 UTC. Time now 2014-Sep-19 05:46 UTC.
Position N 55°36' E 163°49'.

Barometer 1013.6 mb
Water temperature 11.9 ° C

Date/timePositionNaut miles runAvg speedWind from/ knotsBaromVisibWave heightAir tempDewpointWater temp
2014-Sep-19 01:20N 55°36' E 163°49'1 0.4 1013.6 11.9
2014-Sep-18 22:20N 55°37' E 163°50'1 0.7 1015.3 11.8
2014-Sep-18 21:20N 55°38' E 163°50'1 0.2 1015.4 11.8
2014-Sep-18 16:20N 55°38' E 163°51'0 0.0 1016.1 11.9
2014-Sep-18 15:20N 55°38' E 163°51'2 1.0 1016.3 12.0
2014-Sep-18 13:20N 55°39' E 163°55'1 0.2 1017.2 12.0
2014-Sep-18 09:20N 55°39' E 163°55'0 0.3 1018.1 12.0
2014-Sep-18 08:20N 55°40' E 163°55'1 0.7 1018.2 12.0
2014-Sep-18 06:20N 55°40' E 163°58'0 0.2 1018.1 12.1
2014-Sep-18 04:20N 55°40' E 163°58'0 0.0 1018.4 12.0
2014-Sep-18 03:20N 55°40' E 163°58'1 0.6 1018.7 11.8
2014-Sep-18 02:20N 55°40' E 163°59'1 0.6 1018.9 11.6
2014-Sep-18 00:20N 55°40' E 164°01'0 0.3 1019.3 11.5
2014-Sep-17 23:20N 55°41' E 164°01'1 1.3 1019.6 11.4
2014-Sep-17 22:20N 55°41' E 164°03'0 0.2 1019.6 11.4
2014-Sep-17 20:20N 55°41' E 164°04'1 0.4 1019.6 11.3
2014-Sep-17 17:20N 55°41' E 164°06'1 1.1 1018.9 11.2
2014-Sep-17 16:20N 55°41' E 164°08'0 0.1 1018.7 11.2
2014-Sep-17 15:20N 55°41' E 164°08'3 1.3 1018.7 11.2
2014-Sep-17 13:20N 55°41' E 164°12'0 0.0 1018.6 11.2
2014-Sep-17 12:20N 55°41' E 164°12'3 0.6 1018.5 11.2
2014-Sep-17 07:20N 55°42' E 164°17'2 1.9 1017.4 11.2
2014-Sep-17 06:20N 55°41' E 164°20'0 0.0 1017.2 11.2
2014-Sep-17 05:20N 55°41' E 164°20'2 1.0 1017.0 11.2
2014-Sep-17 03:20N 55°42' E 164°23'2 0.6 1016.9 11.2
2014-Sep-16 23:20N 55°40' E 164°26'3 1.4 1016.8 11.2
2014-Sep-16 21:20N 55°39' E 164°30'1 1.0 1016.5 11.2
2014-Sep-16 20:20N 55°38' E 164°32'0 0.1 1016.2 11.2
2014-Sep-16 19:20N 55°38' E 164°32'1 0.7 1015.6 11.2
2014-Sep-16 18:20N 55°38' E 164°33'0 0.3 1015.1 11.2
2014-Sep-16 17:20N 55°38' E 164°33'0 0.2 1014.9 11.2
2014-Sep-16 15:20N 55°38' E 164°34'1 0.6 1014.7 11.2
2014-Sep-16 13:20N 55°37' E 164°33'1 0.3 1014.9 11.2
2014-Sep-16 10:20N 55°36' E 164°34'1 0.6 1015.1 11.2
2014-Sep-16 09:20N 55°35' E 164°35'1 0.6 1014.5 11.2
2014-Sep-16 07:20N 55°35' E 164°36'1 0.6 1013.8 11.2
2014-Sep-16 05:20N 55°34' E 164°38'0 0.0 1013.5 11.3
2014-Sep-16 04:20N 55°34' E 164°38'0 0.1 1013.3 11.3
2014-Sep-16 03:20N 55°35' E 164°38'0 0.2 1013.2 11.3
2014-Sep-16 02:20N 55°34' E 164°38'1 0.6 1013.4 11.2
2014-Sep-16 01:20N 55°34' E 164°37'0 0.0 850.0 -5.0
2014-Sep-16 00:20N 55°34' E 164°37'1 1.3 1013.4 11.2
2014-Sep-15 23:20N 55°33' E 164°36'1 1.1 1013.6 11.1
2014-Sep-15 22:20N 55°32' E 164°36'1 0.4 1013.4 11.0
2014-Sep-15 20:20N 55°32' E 164°37'1 0.6 1012.7 11.0
2014-Sep-15 19:20N 55°31' E 164°38'0 0.3 1012.5 11.0
2014-Sep-15 18:20N 55°31' E 164°38'0 0.5 1012.0 11.1
2014-Sep-15 17:20N 55°31' E 164°38'1 0.6 1011.9 11.1
2014-Sep-15 16:20N 55°31' E 164°38'0 0.3 1012.0 11.1
2014-Sep-15 15:20N 55°31' E 164°38'0 0.3 1012.0 11.1
2014-Sep-15 14:20N 55°31' E 164°38'2 0.8 1012.0 11.1
2014-Sep-15 12:20N 55°31' E 164°36'0 0.1 1011.8 11.2
2014-Sep-15 10:20N 55°31' E 164°35'2 0.5 1011.0 11.2
2014-Sep-15 07:20N 55°31' E 164°33'0 0.3 1009.1 11.5
2014-Sep-15 06:20N 55°31' E 164°33'1 0.4 1009.0 11.6
2014-Sep-15 04:20N 55°31' E 164°32'0 0.3 1008.3 11.7
2014-Sep-15 03:20N 55°31' E 164°32'1 0.7 1008.0 11.9
2014-Sep-15 02:20N 55°31' E 164°33'1 1.0 1008.1 12.0
2014-Sep-15 01:20N 55°31' E 164°35'0 0.0 1007.9 11.8
2014-Sep-15 00:20N 55°31' E 164°35'3 1.4 1007.8 11.6
2014-Sep-14 22:20N 55°34' E 164°33'0 0.0 1007.3 11.1
2014-Sep-14 21:20N 55°34' E 164°33'0 0.0 1007.1 11.1
2014-Sep-14 20:20N 55°34' E 164°33'1 0.9 1006.8 11.1
2014-Sep-14 19:20N 55°33' E 164°33'0 0.2 1006.8 11.0
2014-Sep-14 18:20N 55°33' E 164°32'0 0.2 1006.3 10.9
2014-Sep-14 17:20N 55°33' E 164°32'2 1.0 1006.2 10.8
2014-Sep-14 15:20N 55°31' E 164°34'1 0.8 1006.4 10.8
2014-Sep-14 14:00N 55°31' E 164°36'1 1.6 850.0 -5.0
2014-Sep-14 13:20N 55°31' E 164°34'1 0.3 1006.4 10.8
2014-Sep-14 09:20N 55°32' E 164°36'0 0.3 1006.6 10.9
2014-Sep-14 08:20N 55°32' E 164°36'1 0.6 1006.4 11.0
2014-Sep-14 07:20N 55°32' E 164°35'1 0.4 1006.3 11.2
2014-Sep-14 04:20N 55°31' E 164°34'1 0.5 1007.2 11.2
2014-Sep-14 03:20N 55°30' E 164°34'0 0.0 1007.5 11.2
2014-Sep-14 02:20N 55°30' E 164°34'0 0.3 1008.0 11.2
2014-Sep-14 01:20N 55°30' E 164°34'1 0.8 1008.4 11.1
2014-Sep-14 00:20N 55°29' E 164°35'1 0.3 1008.8 11.0
2014-Sep-13 22:20N 55°29' E 164°36'0 0.0 1009.7 10.8
2014-Sep-13 20:20N 55°29' E 164°36'1 0.5 1010.3 10.7
2014-Sep-13 19:20N 55°29' E 164°37'0 0.4 1010.3 10.8
2014-Sep-13 18:20N 55°29' E 164°36'0 0.1 1010.6 10.9
2014-Sep-13 17:20N 55°29' E 164°36'1 1.3 1011.0 10.9
2014-Sep-13 16:20N 55°30' E 164°34'0 0.0 1011.6 10.8
2014-Sep-13 15:20N 55°30' E 164°34'2 0.6 1011.8 10.8
2014-Sep-13 11:20N 55°27' E 164°34'1 0.3 1013.2 10.9
2014-Sep-13 08:20N 55°27' E 164°35'0 0.2 1013.4 11.2
2014-Sep-13 06:20N 55°27' E 164°35'0 0.1 1013.2 11.2
2014-Sep-13 02:20N 55°27' E 164°35'0 0.4 1014.6 10.9
2014-Sep-13 01:20N 55°26' E 164°35'0 0.2 1014.9 10.8
2014-Sep-13 00:20N 55°26' E 164°34'2 0.9 1015.0 10.7
2014-Sep-12 22:20N 55°24' E 164°34'1 0.5 1014.8 10.5
2014-Sep-12 20:20N 55°24' E 164°36'0 0.0 1014.7 10.4
2014-Sep-12 18:20N 55°24' E 164°36'1 0.6 1013.9 10.4
2014-Sep-12 17:20N 55°24' E 164°36'0 0.1 1014.0 10.4
2014-Sep-12 16:20N 55°24' E 164°37'0 0.0 1013.8 10.4
2014-Sep-12 15:20N 55°24' E 164°37'0 0.3 1013.7 10.4
2014-Sep-12 14:20N 55°24' E 164°36'1 0.3 1013.6 10.5
2014-Sep-12 12:20N 55°24' E 164°35'1 0.2 1013.3 10.5
2014-Sep-12 09:20N 55°24' E 164°34'0 0.2 1013.6 10.6
2014-Sep-12 07:20N 55°24' E 164°34'2 0.9 1012.7 10.6
2014-Sep-12 05:20N 55°22' E 164°32'0 0.2 1012.4 10.6
2014-Sep-12 04:20N 55°22' E 164°33'0 0.0 1012.6 10.6
2014-Sep-12 03:20N 55°22' E 164°33'1 0.7 1012.5 10.6
2014-Sep-12 02:20N 55°22' E 164°34'1 0.3 1012.8 10.6
2014-Sep-12 00:20N 55°21' E 164°34'1 1.0 1012.7 10.5
2014-Sep-11 23:20N 55°22' E 164°34'0 0.0 1012.9 10.5
2014-Sep-11 21:20N 55°22' E 164°34'0 0.2 1012.7 10.5
2014-Sep-11 19:20N 55°22' E 164°34'1 0.3 1012.8 10.4
2014-Sep-11 16:20N 55°22' E 164°33'2 2.3 1012.3 10.4
2014-Sep-11 15:20N 55°20' E 164°34'0 0.1 1012.3 10.4
2014-Sep-11 10:20N 55°19' E 164°34'0 0.4 1012.0 10.4
2014-Sep-11 09:20N 55°20' E 164°35'2 0.3 1011.9 10.4
2014-Sep-11 04:20N 55°21' E 164°33'2 1.0 1011.0 10.4
2014-Sep-11 02:20N 55°20' E 164°30'0 0.1 1010.9 10.4
2014-Sep-11 01:20N 55°19' E 164°30'1 0.8 1010.8 10.5
2014-Sep-11 00:20N 55°19' E 164°31'3 2.9 1010.8 10.5
2014-Sep-10 23:20N 55°17' E 164°36'3 1.5 1010.7 10.6
2014-Sep-10 21:20N 55°19' E 164°40'0 0.0 1010.8 10.7
2014-Sep-10 19:20N 55°19' E 164°40'1 1.5 1010.5 10.8
2014-Sep-10 18:20N 55°20' E 164°41'2 0.9 1010.5 10.8
2014-Sep-10 16:20N 55°20' E 164°38'4 0.5 1010.2 10.8
2014-Sep-10 09:20N 55°16' E 164°41'4 2.0 1010.0 11.2
2014-Sep-10 07:20N 55°17' E 164°48'3 0.6 1009.2 11.2
2014-Sep-10 03:20N 55°20' E 164°49'2 0.4 1008.4 11.5
2014-Sep-09 23:20N 55°19' E 164°47'3 2.5 1008.1 11.7
2014-Sep-09 22:20N 55°17' E 164°49'0 0.0 1008.1 11.8
2014-Sep-09 21:20N 55°17' E 164°49'1 1.4 1007.6 11.9
2014-Sep-09 20:20N 55°17' E 164°51'0 0.0 1007.9 12.0
2014-Sep-09 19:20N 55°17' E 164°51'4 1.5 1007.4 12.0
2014-Sep-09 16:20N 55°17' E 164°59'3 0.4 1006.0 12.3
2014-Sep-09 09:20N 55°20' E 164°60'1 1.2 1006.6 12.8
2014-Sep-09 08:20N 55°19' E 165°02'5 2.5 1006.5 12.9
2014-Sep-09 06:20N 55°19' E 165°10'0 0.1 1006.2 12.9
2014-Sep-09 03:20N 55°19' E 165°10'1 0.4 1006.8 13.0
2014-Sep-09 01:20N 55°19' E 165°11'   1006.7 13.0
Track history (hours):
 
Tides and Currents Weather Stations Pressure Air Temp Water Temp Dewpoint Dewpoint Depression Visibility Wind Speed Wind Dir Waves Ship Positions

Drifting buoy 46533

Last reported at 2014-Sep-19 01:20 UTC. Time now 2014-Sep-19 05:46 UTC.
Position N 55°36' E 163°49'.

Barometer 1013.6 mb
Water temperature 11.9 ° C

Date/timePositionNaut miles runAvg speedWind from/ knotsBaromVisibWave heightAir tempDewpointWater temp
2014-Sep-19 01:20N 55°36' E 163°49'1 0.4 1013.6 11.9
2014-Sep-18 22:20N 55°37' E 163°50'1 0.7 1015.3 11.8
2014-Sep-18 21:20N 55°38' E 163°50'1 0.2 1015.4 11.8
2014-Sep-18 16:20N 55°38' E 163°51'0 0.0 1016.1 11.9
2014-Sep-18 15:20N 55°38' E 163°51'2 1.0 1016.3 12.0
2014-Sep-18 13:20N 55°39' E 163°55'1 0.2 1017.2 12.0
2014-Sep-18 09:20N 55°39' E 163°55'0 0.3 1018.1 12.0
2014-Sep-18 08:20N 55°40' E 163°55'1 0.7 1018.2 12.0
2014-Sep-18 06:20N 55°40' E 163°58'0 0.2 1018.1 12.1
2014-Sep-18 04:20N 55°40' E 163°58'0 0.0 1018.4 12.0
2014-Sep-18 03:20N 55°40' E 163°58'1 0.6 1018.7 11.8
2014-Sep-18 02:20N 55°40' E 163°59'1 0.6 1018.9 11.6
2014-Sep-18 00:20N 55°40' E 164°01'0 0.3 1019.3 11.5
2014-Sep-17 23:20N 55°41' E 164°01'1 1.3 1019.6 11.4
2014-Sep-17 22:20N 55°41' E 164°03'0 0.2 1019.6 11.4
2014-Sep-17 20:20N 55°41' E 164°04'1 0.4 1019.6 11.3
2014-Sep-17 17:20N 55°41' E 164°06'1 1.1 1018.9 11.2
2014-Sep-17 16:20N 55°41' E 164°08'0 0.1 1018.7 11.2
2014-Sep-17 15:20N 55°41' E 164°08'3 1.3 1018.7 11.2
2014-Sep-17 13:20N 55°41' E 164°12'0 0.0 1018.6 11.2
2014-Sep-17 12:20N 55°41' E 164°12'3 0.6 1018.5 11.2
2014-Sep-17 07:20N 55°42' E 164°17'2 1.9 1017.4 11.2
2014-Sep-17 06:20N 55°41' E 164°20'0 0.0 1017.2 11.2
2014-Sep-17 05:20N 55°41' E 164°20'2 1.0 1017.0 11.2
2014-Sep-17 03:20N 55°42' E 164°23'2 0.6 1016.9 11.2
2014-Sep-16 23:20N 55°40' E 164°26'3 1.4 1016.8 11.2
2014-Sep-16 21:20N 55°39' E 164°30'1 1.0 1016.5 11.2
2014-Sep-16 20:20N 55°38' E 164°32'0 0.1 1016.2 11.2
2014-Sep-16 19:20N 55°38' E 164°32'1 0.7 1015.6 11.2
2014-Sep-16 18:20N 55°38' E 164°33'0 0.3 1015.1 11.2
2014-Sep-16 17:20N 55°38' E 164°33'0 0.2 1014.9 11.2
2014-Sep-16 15:20N 55°38' E 164°34'1 0.6 1014.7 11.2
2014-Sep-16 13:20N 55°37' E 164°33'1 0.3 1014.9 11.2
2014-Sep-16 10:20N 55°36' E 164°34'1 0.6 1015.1 11.2
2014-Sep-16 09:20N 55°35' E 164°35'1 0.6 1014.5 11.2
2014-Sep-16 07:20N 55°35' E 164°36'1 0.6 1013.8 11.2
2014-Sep-16 05:20N 55°34' E 164°38'0 0.0 1013.5 11.3
2014-Sep-16 04:20N 55°34' E 164°38'0 0.1 1013.3 11.3
2014-Sep-16 03:20N 55°35' E 164°38'0 0.2 1013.2 11.3
2014-Sep-16 02:20N 55°34' E 164°38'1 0.6 1013.4 11.2
2014-Sep-16 01:20N 55°34' E 164°37'0 0.0 850.0 -5.0
2014-Sep-16 00:20N 55°34' E 164°37'1 1.3 1013.4 11.2
2014-Sep-15 23:20N 55°33' E 164°36'1 1.1 1013.6 11.1
2014-Sep-15 22:20N 55°32' E 164°36'1 0.4 1013.4 11.0
2014-Sep-15 20:20N 55°32' E 164°37'1 0.6 1012.7 11.0
2014-Sep-15 19:20N 55°31' E 164°38'0 0.3 1012.5 11.0
2014-Sep-15 18:20N 55°31' E 164°38'0 0.5 1012.0 11.1
2014-Sep-15 17:20N 55°31' E 164°38'1 0.6 1011.9 11.1
2014-Sep-15 16:20N 55°31' E 164°38'0 0.3 1012.0 11.1
2014-Sep-15 15:20N 55°31' E 164°38'0 0.3 1012.0 11.1
2014-Sep-15 14:20N 55°31' E 164°38'2 0.8 1012.0 11.1
2014-Sep-15 12:20N 55°31' E 164°36'0 0.1 1011.8 11.2
2014-Sep-15 10:20N 55°31' E 164°35'2 0.5 1011.0 11.2
2014-Sep-15 07:20N 55°31' E 164°33'0 0.3 1009.1 11.5
2014-Sep-15 06:20N 55°31' E 164°33'1 0.4 1009.0 11.6
2014-Sep-15 04:20N 55°31' E 164°32'0 0.3 1008.3 11.7
2014-Sep-15 03:20N 55°31' E 164°32'1 0.7 1008.0 11.9
2014-Sep-15 02:20N 55°31' E 164°33'1 1.0 1008.1 12.0
2014-Sep-15 01:20N 55°31' E 164°35'0 0.0 1007.9 11.8
2014-Sep-15 00:20N 55°31' E 164°35'3 1.4 1007.8 11.6
2014-Sep-14 22:20N 55°34' E 164°33'0 0.0 1007.3 11.1
2014-Sep-14 21:20N 55°34' E 164°33'0 0.0 1007.1 11.1
2014-Sep-14 20:20N 55°34' E 164°33'1 0.9 1006.8 11.1
2014-Sep-14 19:20N 55°33' E 164°33'0 0.2 1006.8 11.0
2014-Sep-14 18:20N 55°33' E 164°32'0 0.2 1006.3 10.9
2014-Sep-14 17:20N 55°33' E 164°32'2 1.0 1006.2 10.8
2014-Sep-14 15:20N 55°31' E 164°34'1 0.8 1006.4 10.8
2014-Sep-14 14:00N 55°31' E 164°36'1 1.6 850.0 -5.0
2014-Sep-14 13:20N 55°31' E 164°34'1 0.3 1006.4 10.8
2014-Sep-14 09:20N 55°32' E 164°36'0 0.3 1006.6 10.9
2014-Sep-14 08:20N 55°32' E 164°36'1 0.6 1006.4 11.0
2014-Sep-14 07:20N 55°32' E 164°35'1 0.4 1006.3 11.2
2014-Sep-14 04:20N 55°31' E 164°34'1 0.5 1007.2 11.2
2014-Sep-14 03:20N 55°30' E 164°34'0 0.0 1007.5 11.2
2014-Sep-14 02:20N 55°30' E 164°34'0 0.3 1008.0 11.2
2014-Sep-14 01:20N 55°30' E 164°34'1 0.8 1008.4 11.1
2014-Sep-14 00:20N 55°29' E 164°35'1 0.3 1008.8 11.0
2014-Sep-13 22:20N 55°29' E 164°36'0 0.0 1009.7 10.8
2014-Sep-13 20:20N 55°29' E 164°36'1 0.5 1010.3 10.7
2014-Sep-13 19:20N 55°29' E 164°37'0 0.4 1010.3 10.8
2014-Sep-13 18:20N 55°29' E 164°36'0 0.1 1010.6 10.9
2014-Sep-13 17:20N 55°29' E 164°36'1 1.3 1011.0 10.9
2014-Sep-13 16:20N 55°30' E 164°34'0 0.0 1011.6 10.8
2014-Sep-13 15:20N 55°30' E 164°34'2 0.6 1011.8 10.8
2014-Sep-13 11:20N 55°27' E 164°34'1 0.3 1013.2 10.9
2014-Sep-13 08:20N 55°27' E 164°35'0 0.2 1013.4 11.2
2014-Sep-13 06:20N 55°27' E 164°35'0 0.1 1013.2 11.2
2014-Sep-13 02:20N 55°27' E 164°35'0 0.4 1014.6 10.9
2014-Sep-13 01:20N 55°26' E 164°35'0 0.2 1014.9 10.8
2014-Sep-13 00:20N 55°26' E 164°34'2 0.9 1015.0 10.7
2014-Sep-12 22:20N 55°24' E 164°34'1 0.5 1014.8 10.5
2014-Sep-12 20:20N 55°24' E 164°36'0 0.0 1014.7 10.4
2014-Sep-12 18:20N 55°24' E 164°36'1 0.6 1013.9 10.4
2014-Sep-12 17:20N 55°24' E 164°36'0 0.1 1014.0 10.4
2014-Sep-12 16:20N 55°24' E 164°37'0 0.0 1013.8 10.4
2014-Sep-12 15:20N 55°24' E 164°37'0 0.3 1013.7 10.4
2014-Sep-12 14:20N 55°24' E 164°36'1 0.3 1013.6 10.5
2014-Sep-12 12:20N 55°24' E 164°35'1 0.2 1013.3 10.5
2014-Sep-12 09:20N 55°24' E 164°34'0 0.2 1013.6 10.6
2014-Sep-12 07:20N 55°24' E 164°34'2 0.9 1012.7 10.6
2014-Sep-12 05:20N 55°22' E 164°32'0 0.2 1012.4 10.6
2014-Sep-12 04:20N 55°22' E 164°33'0 0.0 1012.6 10.6
2014-Sep-12 03:20N 55°22' E 164°33'1 0.7 1012.5 10.6
2014-Sep-12 02:20N 55°22' E 164°34'1 0.3 1012.8 10.6
2014-Sep-12 00:20N 55°21' E 164°34'1 1.0 1012.7 10.5
2014-Sep-11 23:20N 55°22' E 164°34'0 0.0 1012.9 10.5
2014-Sep-11 21:20N 55°22' E 164°34'0 0.2 1012.7 10.5
2014-Sep-11 19:20N 55°22' E 164°34'1 0.3 1012.8 10.4
2014-Sep-11 16:20N 55°22' E 164°33'2 2.3 1012.3 10.4
2014-Sep-11 15:20N 55°20' E 164°34'0 0.1 1012.3 10.4
2014-Sep-11 10:20N 55°19' E 164°34'0 0.4 1012.0 10.4
2014-Sep-11 09:20N 55°20' E 164°35'2 0.3 1011.9 10.4
2014-Sep-11 04:20N 55°21' E 164°33'2 1.0 1011.0 10.4
2014-Sep-11 02:20N 55°20' E 164°30'0 0.1 1010.9 10.4
2014-Sep-11 01:20N 55°19' E 164°30'1 0.8 1010.8 10.5
2014-Sep-11 00:20N 55°19' E 164°31'3 2.9 1010.8 10.5
2014-Sep-10 23:20N 55°17' E 164°36'3 1.5 1010.7 10.6
2014-Sep-10 21:20N 55°19' E 164°40'0 0.0 1010.8 10.7
2014-Sep-10 19:20N 55°19' E 164°40'1 1.5 1010.5 10.8
2014-Sep-10 18:20N 55°20' E 164°41'2 0.9 1010.5 10.8
2014-Sep-10 16:20N 55°20' E 164°38'4 0.5 1010.2 10.8
2014-Sep-10 09:20N 55°16' E 164°41'4 2.0 1010.0 11.2
2014-Sep-10 07:20N 55°17' E 164°48'3 0.6 1009.2 11.2
2014-Sep-10 03:20N 55°20' E 164°49'2 0.4 1008.4 11.5
2014-Sep-09 23:20N 55°19' E 164°47'3 2.5 1008.1 11.7
2014-Sep-09 22:20N 55°17' E 164°49'0 0.0 1008.1 11.8
2014-Sep-09 21:20N 55°17' E 164°49'1 1.4 1007.6 11.9
2014-Sep-09 20:20N 55°17' E 164°51'0 0.0 1007.9 12.0
2014-Sep-09 19:20N 55°17' E 164°51'4 1.5 1007.4 12.0
2014-Sep-09 16:20N 55°17' E 164°59'3 0.4 1006.0 12.3
2014-Sep-09 09:20N 55°20' E 164°60'1 1.2 1006.6 12.8
2014-Sep-09 08:20N 55°19' E 165°02'5 2.5 1006.5 12.9
2014-Sep-09 06:20N 55°19' E 165°10'0 0.1 1006.2 12.9
2014-Sep-09 03:20N 55°19' E 165°10'1 0.4 1006.8 13.0
2014-Sep-09 01:20N 55°19' E 165°11'   1006.7 13.0

Dump ship's entire track history